Time;durP1;ratioP1;P1;durP2;ratioP2;P2;SDS_P1;SDS_P2;PMS_P1;PMS_P2;Temp;Humidity;BMP_temperature;BMP_pressure;BME280_temperature;BME280_humidity;BME280_pressure;Samples;Min_cycle;Max_cycle;Signal;HPM_P1;HPM_P2
2023/12/11 00:00:29;;;;;;;1.10;0.50;;;9.80;99.90;;;;;;5067669;28;20648;-74
2023/12/11 00:02:56;;;;;;;3.40;0.60;;;9.80;99.90;;;;;;5069038;28;20229;-74
2023/12/11 00:05:21;;;;;;;1.27;0.40;;;9.80;99.90;;;;;;5068923;28;20185;-74
2023/12/11 00:07:47;;;;;;;1.40;0.60;;;9.80;99.90;;;;;;5067248;28;20451;-74
2023/12/11 00:10:13;;;;;;;1.27;0.50;;;9.80;99.90;;;;;;5069140;28;20923;-73
2023/12/11 00:12:39;;;;;;;1.97;0.70;;;9.70;99.90;;;;;;5067758;28;20436;-74
2023/12/11 00:15:05;;;;;;;1.63;0.70;;;9.70;99.90;;;;;;5067898;28;20449;-73
2023/12/11 00:17:31;;;;;;;0.90;0.40;;;9.70;99.90;;;;;;5069173;28;20357;-73
2023/12/11 00:19:56;;;;;;;0.90;0.50;;;9.70;99.90;;;;;;5069118;28;20974;-73
2023/12/11 00:22:22;;;;;;;1.20;0.50;;;9.70;99.90;;;;;;5068754;28;20234;-73
2023/12/11 00:24:48;;;;;;;1.23;0.40;;;9.70;99.90;;;;;;5067445;28;20675;-73
2023/12/11 00:27:13;;;;;;;1.00;0.70;;;9.70;99.90;;;;;;5067823;28;20754;-73
2023/12/11 00:29:39;;;;;;;1.60;0.60;;;9.70;99.90;;;;;;5067689;28;20188;-72
2023/12/11 00:32:05;;;;;;;5.07;0.53;;;9.70;99.90;;;;;;5067641;28;20188;-72
2023/12/11 00:34:32;;;;;;;0.70;0.40;;;9.60;99.90;;;;;;5068824;28;20268;-73
2023/12/11 00:36:58;;;;;;;2.17;0.90;;;9.60;99.90;;;;;;5068731;28;20281;-74
2023/12/11 00:39:24;;;;;;;2.40;0.53;;;9.60;99.90;;;;;;5068132;28;20983;-73
2023/12/11 00:41:50;;;;;;;1.90;0.73;;;9.60;99.90;;;;;;5071009;28;20513;-73
2023/12/11 00:44:16;;;;;;;1.33;0.60;;;9.50;99.90;;;;;;5072847;28;20176;-73
2023/12/11 00:46:41;;;;;;;1.10;0.70;;;9.50;99.90;;;;;;5071477;28;20212;-73
2023/12/11 00:49:07;;;;;;;1.37;0.50;;;9.40;99.90;;;;;;5054056;28;20437;-72
2023/12/11 00:51:33;;;;;;;1.50;0.50;;;9.40;99.90;;;;;;5070399;28;20293;-73
2023/12/11 00:53:59;;;;;;;1.80;0.60;;;9.40;99.90;;;;;;5071807;28;20218;-72
2023/12/11 00:56:24;;;;;;;2.00;0.70;;;9.40;99.90;;;;;;5053602;28;20769;-72
2023/12/11 00:58:50;;;;;;;1.20;0.50;;;9.30;99.90;;;;;;5070574;28;20187;-73
2023/12/11 01:01:15;;;;;;;1.03;0.60;;;9.30;99.90;;;;;;5070449;28;20187;-71
2023/12/11 01:03:41;;;;;;;0.80;0.50;;;9.20;99.90;;;;;;5071733;28;20194;-72
2023/12/11 01:06:07;;;;;;;2.00;0.60;;;9.20;99.90;;;;;;5069965;28;20214;-72
2023/12/11 01:08:38;;;;;;;1.57;0.50;;;9.20;99.90;;;;;;5070104;28;20304;-71
2023/12/11 01:11:03;;;;;;;1.00;0.60;;;9.10;99.90;;;;;;5071507;28;20418;-72
2023/12/11 01:13:29;;;;;;;0.80;0.50;;;9.20;99.90;;;;;;5071510;28;20516;-73
2023/12/11 01:15:55;;;;;;;0.70;0.43;;;9.20;99.90;;;;;;5070073;28;20653;-72
2023/12/11 01:18:20;;;;;;;2.40;0.70;;;9.20;99.90;;;;;;5071367;28;20190;-72
2023/12/11 01:20:46;;;;;;;1.57;0.53;;;9.20;99.90;;;;;;5070062;28;20199;-72
2023/12/11 01:23:11;;;;;;;2.80;0.50;;;9.20;99.90;;;;;;5069842;28;20531;-71
2023/12/11 01:25:37;;;;;;;0.70;0.50;;;9.10;99.90;;;;;;5069777;28;20194;-72
2023/12/11 01:28:03;;;;;;;0.83;0.47;;;9.10;99.90;;;;;;5071172;28;20256;-72
2023/12/11 01:30:28;;;;;;;1.43;0.60;;;9.00;99.90;;;;;;5069836;28;20645;-72
2023/12/11 01:32:54;;;;;;;1.03;0.93;;;9.10;99.90;;;;;;5071071;28;20620;-72
2023/12/11 01:35:20;;;;;;;0.70;0.50;;;9.10;99.90;;;;;;5071165;28;20212;-71
2023/12/11 01:37:46;;;;;;;1.63;0.50;;;9.10;99.90;;;;;;5052799;28;20211;-71
2023/12/11 01:40:12;;;;;;;1.00;0.50;;;9.10;99.90;;;;;;5069501;28;20920;-71
2023/12/11 01:42:37;;;;;;;1.73;0.47;;;9.20;99.90;;;;;;5071169;28;20222;-71
2023/12/11 01:45:03;;;;;;;1.27;0.50;;;9.20;99.90;;;;;;5069931;28;20222;-72
2023/12/11 01:47:30;;;;;;;1.37;0.60;;;9.30;99.90;;;;;;5071544;28;20288;-72
2023/12/11 01:49:56;;;;;;;0.80;0.47;;;9.30;99.90;;;;;;5071581;28;20806;-72
2023/12/11 01:52:22;;;;;;;0.87;0.57;;;9.20;99.90;;;;;;5069359;28;20434;-72
2023/12/11 01:54:48;;;;;;;0.70;0.43;;;9.30;99.90;;;;;;5071199;28;20204;-72
2023/12/11 01:57:14;;;;;;;1.93;0.93;;;9.20;99.90;;;;;;5069638;28;20441;-73
2023/12/11 01:59:40;;;;;;;0.70;0.40;;;9.20;99.90;;;;;;5071324;28;20520;-72
2023/12/11 02:02:05;;;;;;;2.30;0.60;;;9.30;99.90;;;;;;5069435;28;20473;-72
2023/12/11 02:04:32;;;;;;;0.90;0.40;;;9.30;99.90;;;;;;5069528;28;20428;-72
2023/12/11 02:06:58;;;;;;;0.70;0.40;;;9.30;99.90;;;;;;5070936;28;20746;-71
2023/12/11 02:09:26;;;;;;;0.70;0.47;;;9.30;99.90;;;;;;5070089;28;20427;-72
2023/12/11 02:11:52;;;;;;;0.90;0.43;;;9.30;99.90;;;;;;5071179;28;20839;-73
2023/12/11 02:14:18;;;;;;;0.60;0.40;;;9.30;99.90;;;;;;5069854;28;20429;-73
2023/12/11 02:16:44;;;;;;;0.83;0.53;;;9.30;99.90;;;;;;5071079;28;20440;-72
2023/12/11 02:19:09;;;;;;;1.43;0.60;;;9.20;99.90;;;;;;5071031;28;20211;-72
2023/12/11 02:21:35;;;;;;;1.00;0.40;;;9.30;99.90;;;;;;5069599;28;20693;-72
2023/12/11 02:24:10;;;;;;;1.87;0.40;;;9.30;99.90;;;;;;5069626;28;20277;-73
2023/12/11 02:26:36;;;;;;;0.67;0.40;;;9.30;99.90;;;;;;5070696;28;20232;-74
2023/12/11 02:29:01;;;;;;;1.17;0.40;;;9.40;99.90;;;;;;5070544;28;20452;-73
2023/12/11 02:31:27;;;;;;;2.13;0.60;;;9.40;99.90;;;;;;5070521;28;20502;-73
2023/12/11 02:33:53;;;;;;;3.23;0.57;;;9.40;99.90;;;;;;5069059;28;20191;-73
2023/12/11 02:36:18;;;;;;;0.90;0.30;;;9.40;99.90;;;;;;5070467;28;20284;-72
2023/12/11 02:38:44;;;;;;;1.07;0.50;;;9.40;99.90;;;;;;5069020;28;20187;-72
2023/12/11 02:41:09;;;;;;;1.10;0.50;;;9.50;99.90;;;;;;5070483;28;20655;-73
2023/12/11 02:43:35;;;;;;;0.90;0.40;;;9.50;99.90;;;;;;5069118;28;20301;-71
2023/12/11 02:46:02;;;;;;;0.60;0.30;;;9.50;99.90;;;;;;5070420;28;20696;-71
2023/12/11 02:48:28;;;;;;;0.70;0.40;;;9.50;99.90;;;;;;5070411;28;20198;-73
2023/12/11 02:50:54;;;;;;;0.80;0.50;;;9.50;99.90;;;;;;5069020;28;20478;-72
2023/12/11 02:53:19;;;;;;;0.70;0.40;;;9.50;99.90;;;;;;5068980;28;20517;-72
2023/12/11 02:55:45;;;;;;;0.60;0.37;;;9.50;99.90;;;;;;5070087;28;20750;-71
2023/12/11 02:58:11;;;;;;;0.60;0.40;;;9.50;99.90;;;;;;5053167;28;20183;-71
2023/12/11 03:00:36;;;;;;;0.70;0.40;;;9.50;99.90;;;;;;5069790;28;20184;-73
2023/12/11 03:03:02;;;;;;;0.60;0.30;;;9.60;99.90;;;;;;5068027;28;20709;-73
2023/12/11 03:05:28;;;;;;;0.70;0.40;;;9.60;99.90;;;;;;5068606;28;20213;-72
2023/12/11 03:07:53;;;;;;;1.60;0.40;;;9.50;99.90;;;;;;5068206;28;20535;-72
2023/12/11 03:10:20;;;;;;;1.03;0.40;;;9.60;99.90;;;;;;5068121;28;20536;-73
2023/12/11 03:12:46;;;;;;;3.33;0.60;;;9.60;99.90;;;;;;5069676;28;20296;-73
2023/12/11 03:15:12;;;;;;;2.10;0.30;;;9.50;99.90;;;;;;5069471;28;20514;-72
2023/12/11 03:17:37;;;;;;;0.70;0.40;;;9.50;99.90;;;;;;5067976;28;20311;-73
2023/12/11 03:20:05;;;;;;;0.70;0.40;;;9.50;99.90;;;;;;5068101;28;20537;-72
2023/12/11 03:22:31;;;;;;;0.80;0.40;;;9.60;99.90;;;;;;5069182;28;20207;-72
2023/12/11 03:24:56;;;;;;;1.17;0.40;;;9.50;99.90;;;;;;5069206;28;20937;-72
2023/12/11 03:27:22;;;;;;;0.80;0.40;;;9.50;99.90;;;;;;5051564;28;20206;-73
2023/12/11 03:29:50;;;;;;;0.67;0.30;;;9.50;99.90;;;;;;5069333;28;20304;-74
2023/12/11 03:32:16;;;;;;;1.33;0.40;;;9.60;99.90;;;;;;5069321;28;20190;-72
2023/12/11 03:34:42;;;;;;;1.63;0.40;;;9.60;99.90;;;;;;5067981;28;20419;-72
2023/12/11 03:37:10;;;;;;;0.70;0.40;;;9.60;99.90;;;;;;5067763;28;20216;-72
2023/12/11 03:39:36;;;;;;;1.00;0.40;;;9.70;99.90;;;;;;5069504;28;20207;-72
2023/12/11 03:42:01;;;;;;;0.70;0.33;;;9.70;99.90;;;;;;5069545;28;20449;-72
2023/12/11 03:44:27;;;;;;;0.90;0.37;;;9.70;99.90;;;;;;5069844;28;20196;-73
2023/12/11 03:46:52;;;;;;;0.70;0.30;;;9.70;99.90;;;;;;5068300;28;20218;-74
2023/12/11 03:49:20;;;;;;;0.60;0.30;;;9.70;99.90;;;;;;5070164;28;20262;-71
2023/12/11 03:51:46;;;;;;;0.70;0.40;;;9.70;99.90;;;;;;5070156;28;20541;-72
2023/12/11 03:54:12;;;;;;;0.60;0.30;;;9.80;99.90;;;;;;5068707;28;20863;-72
2023/12/11 03:56:39;;;;;;;0.60;0.30;;;9.80;99.90;;;;;;5070250;28;20450;-72
2023/12/11 03:59:05;;;;;;;0.60;0.33;;;9.80;99.90;;;;;;5068609;28;20282;-71
2023/12/11 04:01:31;;;;;;;1.47;0.40;;;9.90;99.90;;;;;;5070010;28;20449;-74
2023/12/11 04:03:56;;;;;;;0.70;0.40;;;9.90;99.90;;;;;;5069827;28;20927;-71
2023/12/11 04:06:22;;;;;;;0.70;0.40;;;10.00;99.90;;;;;;5069875;28;20200;-72
2023/12/11 04:08:48;;;;;;;0.93;0.40;;;10.00;99.90;;;;;;5069665;28;20180;-73
2023/12/11 04:11:13;;;;;;;0.80;0.40;;;10.00;99.90;;;;;;5068305;28;20175;-72
2023/12/11 04:13:39;;;;;;;0.60;0.30;;;10.00;99.90;;;;;;5069484;28;20202;-73
2023/12/11 04:16:05;;;;;;;0.60;0.30;;;10.10;99.90;;;;;;5067692;28;20209;-73
2023/12/11 04:18:32;;;;;;;0.97;0.40;;;10.20;99.90;;;;;;5067787;28;20196;-74
2023/12/11 04:20:58;;;;;;;0.60;0.30;;;10.20;99.90;;;;;;5067384;28;20431;-74
2023/12/11 04:23:24;;;;;;;0.60;0.30;;;10.20;99.90;;;;;;5069275;28;20476;-71
2023/12/11 04:25:51;;;;;;;0.80;0.30;;;10.20;99.90;;;;;;5067635;28;20513;-74
2023/12/11 04:28:16;;;;;;;0.70;0.40;;;10.20;99.90;;;;;;5069068;28;20599;-73
2023/12/11 04:30:42;;;;;;;0.70;0.30;;;10.20;99.90;;;;;;5051038;28;20443;-72
2023/12/11 04:33:07;;;;;;;0.80;0.50;;;10.20;99.90;;;;;;5067740;28;20219;-74
2023/12/11 04:35:33;;;;;;;1.33;0.40;;;10.20;99.90;;;;;;5069067;28;20212;-71
2023/12/11 04:37:59;;;;;;;0.70;0.30;;;10.20;99.90;;;;;;5068964;28;20226;-73
2023/12/11 04:40:26;;;;;;;1.00;0.40;;;10.20;99.90;;;;;;5068930;28;20238;-74
2023/12/11 04:42:52;;;;;;;0.80;0.33;;;10.10;99.90;;;;;;5067621;28;20270;-74
2023/12/11 04:45:17;;;;;;;0.70;0.40;;;10.30;99.90;;;;;;5067662;28;20431;-73
2023/12/11 04:47:43;;;;;;;0.70;0.40;;;10.30;99.90;;;;;;5068900;28;20701;-73
2023/12/11 04:50:09;;;;;;;0.70;0.40;;;10.30;99.90;;;;;;5068849;28;20177;-73
2023/12/11 04:52:34;;;;;;;2.93;0.90;;;10.30;99.90;;;;;;5067487;28;20211;-73
2023/12/11 04:55:00;;;;;;;1.10;0.47;;;10.30;99.90;;;;;;5068590;28;20521;-74
2023/12/11 04:57:26;;;;;;;1.70;0.60;;;10.30;99.90;;;;;;5050693;28;20719;-74
2023/12/11 04:59:51;;;;;;;1.10;0.50;;;10.30;99.90;;;;;;5067442;28;20194;-73
2023/12/11 05:02:17;;;;;;;0.80;0.50;;;10.20;99.90;;;;;;5068122;28;20229;-73
2023/12/11 05:04:43;;;;;;;0.80;0.40;;;10.10;99.90;;;;;;5066609;28;20195;-73
2023/12/11 05:07:08;;;;;;;1.73;0.47;;;10.10;99.90;;;;;;5050035;28;20231;-73
2023/12/11 05:09:34;;;;;;;0.80;0.40;;;10.00;99.90;;;;;;5068159;28;20180;-73
2023/12/11 05:11:59;;;;;;;1.17;0.40;;;10.00;99.90;;;;;;5066892;28;20690;-72
2023/12/11 05:14:25;;;;;;;3.00;0.57;;;10.10;99.90;;;;;;5067955;28;20189;-73
2023/12/11 05:16:51;;;;;;;0.90;0.70;;;10.10;99.90;;;;;;5066914;28;20234;-73
2023/12/11 05:19:16;;;;;;;0.70;0.40;;;10.00;99.90;;;;;;5066464;28;20658;-74
2023/12/11 05:21:44;;;;;;;0.70;0.33;;;10.00;99.90;;;;;;5067901;28;20462;-73
2023/12/11 05:24:10;;;;;;;1.63;0.40;;;10.10;99.90;;;;;;5066296;28;20180;-73
2023/12/11 05:26:36;;;;;;;0.70;0.40;;;10.10;99.90;;;;;;5065046;28;20451;-73
2023/12/11 05:29:03;;;;;;;0.90;0.50;;;10.10;99.90;;;;;;5068462;28;20422;-73
2023/12/11 05:31:30;;;;;;;0.70;0.40;;;10.10;99.90;;;;;;5069986;28;20177;-73
2023/12/11 05:33:56;;;;;;;5.30;0.63;;;10.10;99.90;;;;;;5068290;28;20429;-72
2023/12/11 05:36:21;;;;;;;0.70;0.40;;;10.10;99.90;;;;;;5069841;28;20462;-73
2023/12/11 05:38:47;;;;;;;0.77;0.40;;;10.10;99.90;;;;;;5069770;28;20488;-73
2023/12/11 05:41:13;;;;;;;1.63;0.30;;;10.10;99.90;;;;;;5069680;28;20196;-73
2023/12/11 05:43:39;;;;;;;1.77;0.63;;;10.10;99.90;;;;;;5069641;28;20208;-74
2023/12/11 05:46:04;;;;;;;0.70;0.40;;;10.10;99.90;;;;;;5069781;28;20199;-73
2023/12/11 05:48:30;;;;;;;2.90;0.93;;;10.20;99.90;;;;;;5069998;28;20418;-74
2023/12/11 05:50:56;;;;;;;2.63;0.60;;;10.20;99.90;;;;;;5070084;28;20191;-73
2023/12/11 05:53:21;;;;;;;0.90;0.50;;;10.20;99.90;;;;;;5070240;28;20189;-74
2023/12/11 05:55:47;;;;;;;0.60;0.33;;;10.30;99.90;;;;;;5069266;28;20775;-73
2023/12/11 05:58:13;;;;;;;0.90;0.40;;;10.30;99.90;;;;;;5068101;28;20250;-73
2023/12/11 06:00:39;;;;;;;0.70;0.40;;;10.30;99.90;;;;;;5068065;28;20218;-72
2023/12/11 06:03:04;;;;;;;1.77;0.47;;;10.40;99.90;;;;;;5069617;28;20208;-73
2023/12/11 06:05:30;;;;;;;0.80;0.40;;;10.30;99.90;;;;;;5067769;28;20450;-73
2023/12/11 06:07:55;;;;;;;1.73;0.40;;;10.30;99.90;;;;;;5069215;28;20294;-73
2023/12/11 06:10:21;;;;;;;1.23;0.50;;;10.30;99.90;;;;;;5067941;28;20191;-73
2023/12/11 06:12:47;;;;;;;1.13;0.40;;;10.30;99.90;;;;;;5069130;28;20719;-72
2023/12/11 06:15:12;;;;;;;0.80;0.37;;;10.30;99.90;;;;;;5067529;28;20227;-72
2023/12/11 06:17:38;;;;;;;0.97;0.40;;;10.30;99.90;;;;;;5068892;28;20208;-73
2023/12/11 06:20:04;;;;;;;0.90;0.50;;;10.30;99.90;;;;;;5067360;28;20215;-73
2023/12/11 06:22:30;;;;;;;0.70;0.40;;;10.40;99.90;;;;;;5067296;28;20221;-73
2023/12/11 06:24:56;;;;;;;1.83;0.50;;;10.40;99.90;;;;;;5067117;28;20430;-74
2023/12/11 06:27:24;;;;;;;1.53;0.70;;;10.40;99.90;;;;;;5068970;28;20210;-74
2023/12/11 06:29:50;;;;;;;0.90;0.50;;;10.40;99.90;;;;;;5069402;28;20191;-73
2023/12/11 06:32:15;;;;;;;0.80;0.40;;;10.40;99.90;;;;;;5069109;28;20430;-73
2023/12/11 06:34:41;;;;;;;0.90;0.40;;;10.40;99.90;;;;;;5067417;28;20184;-73
2023/12/11 06:37:07;;;;;;;1.00;0.40;;;10.40;99.90;;;;;;5068406;28;20207;-72
2023/12/11 06:39:33;;;;;;;2.30;0.50;;;10.40;99.90;;;;;;5066882;28;20187;-73
2023/12/11 06:41:58;;;;;;;1.10;0.50;;;10.50;99.90;;;;;;5067621;28;20209;-73
2023/12/11 06:44:24;;;;;;;2.90;0.50;;;10.50;99.90;;;;;;5068826;28;20265;-73
2023/12/11 06:46:49;;;;;;;0.70;0.30;;;10.50;99.90;;;;;;5068298;28;20635;-73
2023/12/11 06:49:15;;;;;;;1.77;0.50;;;10.60;99.90;;;;;;5068305;28;20183;-73
2023/12/11 06:51:41;;;;;;;1.17;0.40;;;10.60;99.90;;;;;;5068482;28;20981;-74
2023/12/11 06:54:07;;;;;;;0.70;0.40;;;10.60;99.90;;;;;;5066887;28;20186;-75
2023/12/11 06:56:33;;;;;;;0.90;0.40;;;10.60;99.90;;;;;;5068002;28;20213;-74
2023/12/11 06:59:00;;;;;;;0.80;0.40;;;10.60;99.90;;;;;;5050011;28;20416;-74
2023/12/11 07:01:30;;;;;;;2.20;0.50;;;10.60;99.90;;;;;;5066632;28;20183;-73
2023/12/11 07:03:56;;;;;;;0.70;0.37;;;10.60;99.90;;;;;;5068235;28;20413;-72
2023/12/11 07:06:22;;;;;;;1.83;0.77;;;10.70;99.90;;;;;;5066686;28;20449;-73
2023/12/11 07:08:48;;;;;;;0.80;0.60;;;10.70;99.90;;;;;;5068090;28;20411;-73
2023/12/11 07:11:13;;;;;;;0.80;0.50;;;10.70;99.90;;;;;;5066456;28;20176;-73
2023/12/11 07:13:42;;;;;;;3.20;0.60;;;10.80;99.90;;;;;;5050022;28;20184;-73
2023/12/11 07:16:08;;;;;;;4.50;0.60;;;10.80;99.90;;;;;;5067937;28;20661;-73
2023/12/11 07:18:34;;;;;;;1.30;0.50;;;10.80;99.90;;;;;;5068041;28;20417;-74
2023/12/11 07:21:00;;;;;;;1.00;0.40;;;10.80;99.90;;;;;;5066367;28;20499;-73
2023/12/11 07:23:25;;;;;;;3.93;0.60;;;10.80;99.90;;;;;;5067967;28;20215;-74
2023/12/11 07:25:51;;;;;;;1.50;0.50;;;10.80;99.90;;;;;;5067851;28;20178;-74
2023/12/11 07:28:16;;;;;;;0.80;0.40;;;10.80;99.90;;;;;;5067605;28;20181;-73
2023/12/11 07:30:42;;;;;;;0.70;0.40;;;10.80;99.90;;;;;;5067708;28;20187;-73
2023/12/11 07:33:11;;;;;;;1.47;0.50;;;10.80;99.90;;;;;;5067744;28;20203;-73
2023/12/11 07:35:36;;;;;;;1.73;0.50;;;10.80;99.90;;;;;;5067619;28;20192;-73
2023/12/11 07:38:03;;;;;;;0.90;0.40;;;10.80;99.90;;;;;;5067232;28;20447;-73
2023/12/11 07:40:29;;;;;;;2.03;0.40;;;10.90;99.90;;;;;;5067991;28;20192;-73
2023/12/11 07:42:54;;;;;;;3.23;0.63;;;10.90;99.90;;;;;;5067503;28;20830;-73
2023/12/11 07:45:22;;;;;;;1.47;0.40;;;10.80;99.90;;;;;;5049736;28;20670;-74
2023/12/11 07:47:47;;;;;;;2.10;0.40;;;10.80;99.90;;;;;;5067692;28;20260;-74
2023/12/11 07:50:13;;;;;;;0.73;0.40;;;10.80;99.90;;;;;;5065746;28;20415;-74
2023/12/11 07:52:39;;;;;;;1.77;0.40;;;10.80;99.90;;;;;;5066284;28;20195;-74
2023/12/11 07:55:05;;;;;;;0.70;0.43;;;10.90;99.90;;;;;;5067545;28;20196;-73
2023/12/11 07:57:31;;;;;;;1.87;0.47;;;11.00;99.90;;;;;;5067441;28;20258;-74
2023/12/11 07:59:56;;;;;;;2.33;0.53;;;10.90;99.90;;;;;;5067515;28;20426;-75
2023/12/11 08:02:22;;;;;;;1.53;0.40;;;10.90;99.90;;;;;;5065840;28;20240;-72
2023/12/11 08:04:48;;;;;;;0.90;0.50;;;10.80;99.90;;;;;;5066276;28;20177;-74
2023/12/11 08:07:14;;;;;;;5.30;0.53;;;10.80;99.90;;;;;;5066340;28;20205;-74
2023/12/11 08:09:40;;;;;;;1.53;1.00;;;10.80;99.90;;;;;;5066279;28;20180;-74
2023/12/11 08:12:06;;;;;;;1.47;0.43;;;10.80;99.90;;;;;;5067763;28;20427;-74
2023/12/11 08:14:32;;;;;;;2.50;0.50;;;10.70;99.90;;;;;;5049576;28;20766;-74
2023/12/11 08:16:58;;;;;;;1.50;0.53;;;10.70;99.90;;;;;;5067483;28;21254;-74
2023/12/11 08:19:24;;;;;;;0.97;0.57;;;10.70;99.90;;;;;;5067617;28;20419;-74
2023/12/11 08:21:50;;;;;;;0.70;0.40;;;10.70;99.90;;;;;;5067653;28;20459;-74
2023/12/11 08:24:16;;;;;;;1.00;0.43;;;10.70;99.90;;;;;;5067671;28;20431;-74
2023/12/11 08:26:43;;;;;;;0.73;0.50;;;10.70;99.90;;;;;;5067892;28;20220;-73
2023/12/11 08:29:09;;;;;;;1.10;0.50;;;10.70;99.90;;;;;;5049701;28;20463;-74
2023/12/11 08:31:34;;;;;;;1.03;0.60;;;10.70;99.90;;;;;;5067823;28;20441;-74
2023/12/11 08:34:00;;;;;;;2.60;0.70;;;10.60;99.90;;;;;;5066404;28;20189;-73
2023/12/11 08:36:26;;;;;;;4.50;0.60;;;10.60;99.90;;;;;;5066151;28;20224;-73
2023/12/11 08:38:52;;;;;;;2.83;0.70;;;10.60;99.90;;;;;;5066461;28;20414;-75
2023/12/11 08:41:17;;;;;;;1.00;0.47;;;10.50;99.90;;;;;;5066516;28;20186;-74
2023/12/11 08:43:43;;;;;;;1.13;0.60;;;10.50;99.90;;;;;;5066237;28;20596;-74
2023/12/11 08:46:08;;;;;;;1.13;0.50;;;10.50;99.90;;;;;;5067676;28;20291;-75
2023/12/11 08:48:34;;;;;;;0.90;0.50;;;10.50;99.90;;;;;;5067578;28;20180;-74
2023/12/11 08:51:00;;;;;;;2.73;0.77;;;10.50;99.90;;;;;;5067564;28;20209;-74
2023/12/11 08:53:25;;;;;;;0.80;0.50;;;10.50;99.90;;;;;;5067606;28;20185;-74
2023/12/11 08:55:53;;;;;;;0.90;0.60;;;10.50;99.90;;;;;;5067183;28;20280;-74
2023/12/11 08:58:19;;;;;;;3.10;0.60;;;10.50;99.90;;;;;;5066194;28;20181;-74
2023/12/11 09:00:45;;;;;;;4.23;0.60;;;10.40;99.90;;;;;;5067598;28;20446;-74
2023/12/11 09:03:10;;;;;;;2.00;0.63;;;10.50;99.90;;;;;;5069262;28;20203;-74
2023/12/11 09:05:36;;;;;;;1.13;0.40;;;10.50;99.90;;;;;;5052561;28;20178;-74
2023/12/11 09:08:02;;;;;;;1.03;0.43;;;10.60;99.90;;;;;;5068985;28;20206;-74
2023/12/11 09:10:28;;;;;;;1.50;0.63;;;10.60;99.90;;;;;;5070599;28;20190;-74
2023/12/11 09:12:53;;;;;;;1.00;0.60;;;10.60;99.90;;;;;;5069414;28;21092;-73
2023/12/11 09:15:20;;;;;;;1.03;0.60;;;10.70;99.90;;;;;;5069277;28;20191;-73
2023/12/11 09:17:45;;;;;;;1.73;0.67;;;10.70;99.90;;;;;;5070634;28;20212;-74
2023/12/11 09:20:11;;;;;;;1.77;0.57;;;10.80;99.90;;;;;;5070291;28;20503;-74
2023/12/11 09:22:40;;;;;;;1.53;0.60;;;10.80;99.90;;;;;;5068809;28;21349;-74
2023/12/11 09:25:06;;;;;;;2.50;0.70;;;10.70;99.90;;;;;;5070116;28;20253;-72
2023/12/11 09:27:32;;;;;;;1.20;0.50;;;10.80;99.90;;;;;;5068426;28;20529;-74
2023/12/11 09:29:58;;;;;;;0.80;0.40;;;10.70;99.90;;;;;;5070065;28;20467;-74
2023/12/11 09:32:23;;;;;;;1.60;0.47;;;10.70;99.90;;;;;;5070245;28;20189;-74
2023/12/11 09:34:49;;;;;;;1.57;0.53;;;10.70;99.90;;;;;;5070036;28;21096;-74
2023/12/11 09:37:23;;;;;;;2.93;1.20;;;10.70;99.90;;;;;;5051905;28;20298;-74
2023/12/11 09:39:49;;;;;;;1.17;0.50;;;10.70;99.90;;;;;;5070337;28;20267;-73
2023/12/11 09:42:15;;;;;;;1.00;0.50;;;10.70;99.90;;;;;;5068779;28;20464;-72
2023/12/11 09:44:46;;;;;;;1.40;0.67;;;10.70;99.90;;;;;;5070039;28;20712;-74
2023/12/11 09:47:19;;;;;;;1.33;0.70;;;10.70;99.90;;;;;;5070076;28;20476;-74
2023/12/11 09:49:46;;;;;;;2.40;0.67;;;10.70;99.90;;;;;;5069874;28;20431;-74
2023/12/11 09:52:13;;;;;;;3.97;0.50;;;10.80;99.90;;;;;;5068739;28;20938;-73
2023/12/11 09:54:39;;;;;;;1.47;0.73;;;10.80;99.90;;;;;;5069987;28;20475;-74
2023/12/11 09:57:09;;;;;;;2.30;0.77;;;10.90;99.90;;;;;;5070989;28;20443;-74
2023/12/11 09:59:36;;;;;;;1.20;0.50;;;10.90;99.90;;;;;;5070166;28;20458;-74
2023/12/11 10:02:05;;;;;;;0.80;0.50;;;10.90;99.90;;;;;;5068598;28;20476;-74
2023/12/11 10:04:31;;;;;;;42.80;19.37;;;10.90;99.90;;;;;;5070155;28;20421;-74
2023/12/11 10:06:57;;;;;;;1.60;1.40;;;11.00;99.90;;;;;;5068620;28;20441;-74
2023/12/11 10:09:35;;;;;;;7.97;2.30;;;11.00;99.90;;;;;;5069716;28;20273;-75
2023/12/11 10:12:04;;;;;;;2.37;1.20;;;11.00;99.90;;;;;;5069432;28;20190;-74
2023/12/11 10:14:30;;;;;;;2.10;0.50;;;11.00;99.90;;;;;;5067685;28;20845;-74
2023/12/11 10:17:16;;;;;;;1.63;0.67;;;11.10;99.90;;;;;;5069567;28;20435;-74
2023/12/11 10:19:41;;;;;;;1.80;0.60;;;11.10;99.90;;;;;;5050863;28;20435;-74
2023/12/11 10:22:07;;;;;;;2.70;0.50;;;11.10;99.90;;;;;;5067685;28;20529;-74
2023/12/11 10:24:33;;;;;;;4.60;0.67;;;11.10;99.90;;;;;;5067724;28;20656;-75
2023/12/11 10:27:02;;;;;;;1.10;0.70;;;11.10;99.90;;;;;;5067323;28;20242;-74
2023/12/11 10:29:32;;;;;;;1.30;0.60;;;11.10;99.90;;;;;;5067292;28;20516;-74
2023/12/11 10:32:03;;;;;;;1.87;0.60;;;11.10;99.90;;;;;;5067494;28;20522;-74
2023/12/11 10:34:43;;;;;;;2.03;0.73;;;11.10;99.90;;;;;;5067568;28;20455;-74
2023/12/11 10:37:13;;;;;;;1.37;0.60;;;11.20;99.90;;;;;;5068807;28;20452;-75
2023/12/11 10:39:54;;;;;;;2.70;0.70;;;11.40;99.90;;;;;;5068886;28;20417;-74
2023/12/11 10:42:19;;;;;;;1.57;0.77;;;12.10;99.90;;;;;;5067281;28;20499;-75
2023/12/11 10:44:45;;;;;;;2.87;0.90;;;14.40;99.90;;;;;;5068702;28;20453;-75
2023/12/11 10:47:12;;;;;;;2.57;1.17;;;15.80;99.90;;;;;;5067561;28;20210;-74
2023/12/11 10:49:39;;;;;;;1.00;0.70;;;17.00;99.90;;;;;;5068730;28;20171;-74
2023/12/11 10:52:05;;;;;;;1.33;1.00;;;17.20;99.90;;;;;;5051330;28;20432;-74
2023/12/11 10:54:31;;;;;;;2.30;0.90;;;16.50;99.90;;;;;;5067398;28;20441;-74
2023/12/11 10:57:00;;;;;;;2.83;0.80;;;16.10;99.90;;;;;;5069009;28;20197;-74
2023/12/11 10:59:28;;;;;;;2.30;0.87;;;15.50;99.90;;;;;;5068847;28;20429;-74
2023/12/11 11:01:55;;;;;;;1.03;0.60;;;15.00;99.90;;;;;;5067283;28;20464;-74
2023/12/11 11:04:22;;;;;;;1.30;0.70;;;14.60;99.90;;;;;;5066964;28;20418;-75
2023/12/11 11:06:54;;;;;;;1.30;0.80;;;14.20;99.90;;;;;;5068678;28;20467;-75
2023/12/11 11:09:32;;;;;;;1.50;0.70;;;13.90;99.90;;;;;;5068804;28;20438;-74
2023/12/11 11:12:05;;;;;;;1.20;0.63;;;13.50;99.90;;;;;;5068712;28;20408;-75
2023/12/11 11:14:48;;;;;;;3.77;0.80;;;13.30;99.90;;;;;;5068626;28;20417;-74
2023/12/11 11:17:16;;;;;;;2.83;0.50;;;13.10;99.90;;;;;;5068563;28;20444;-74
2023/12/11 11:20:14;;;;;;;2.90;0.70;;;13.10;99.90;;;;;;5068581;28;20418;-76
2023/12/11 11:22:40;;;;;;;1.20;0.80;;;13.10;99.90;;;;;;5068462;28;20897;-75
2023/12/11 11:25:28;;;;;;;1.90;0.60;;;13.00;99.90;;;;;;5067626;28;20420;-74
2023/12/11 11:27:53;;;;;;;1.03;0.63;;;12.90;99.90;;;;;;5068342;28;20430;-73
2023/12/11 11:30:41;;;;;;;1.57;0.60;;;12.80;99.90;;;;;;5050664;28;20421;-75
2023/12/11 11:33:08;;;;;;;1.00;0.53;;;12.70;99.90;;;;;;5068506;28;20265;-73
2023/12/11 11:35:46;;;;;;;1.27;0.40;;;12.50;99.90;;;;;;5068994;28;20453;-72
2023/12/11 11:38:16;;;;;;;1.67;0.60;;;12.40;99.90;;;;;;5066949;28;20801;-72
2023/12/11 11:40:45;;;;;;;1.07;0.40;;;12.30;99.90;;;;;;5068438;28;20432;-74
2023/12/11 11:43:11;;;;;;;1.23;0.53;;;12.30;99.90;;;;;;5068005;28;20993;-73
2023/12/11 11:45:37;;;;;;;2.60;0.60;;;12.20;99.90;;;;;;5068103;28;20417;-74
2023/12/11 11:48:04;;;;;;;0.80;0.50;;;12.10;99.90;;;;;;5066577;28;20439;-74
2023/12/11 11:50:29;;;;;;;2.40;0.50;;;12.10;99.90;;;;;;5068298;28;20443;-73
2023/12/11 11:53:06;;;;;;;0.80;0.50;;;12.20;99.90;;;;;;5066602;28;20431;-71
2023/12/11 11:55:32;;;;;;;0.80;0.40;;;12.30;99.90;;;;;;5067513;28;20222;-74
2023/12/11 11:57:57;;;;;;;1.17;0.50;;;12.20;99.90;;;;;;5065581;28;21031;-73
2023/12/11 12:00:28;;;;;;;1.10;0.50;;;12.20;99.90;;;;;;5067327;28;20504;-73
2023/12/11 12:02:57;;;;;;;1.73;0.50;;;12.30;99.90;;;;;;5067346;28;20220;-74
2023/12/11 12:05:23;;;;;;;0.80;0.60;;;12.20;99.90;;;;;;5065839;28;20950;-73
2023/12/11 12:07:49;;;;;;;0.83;0.47;;;12.20;99.90;;;;;;5066057;28;20436;-73
2023/12/11 12:10:17;;;;;;;1.53;0.57;;;12.20;99.90;;;;;;5067321;28;20173;-73
2023/12/11 12:12:42;;;;;;;5.83;0.50;;;12.20;99.90;;;;;;5065923;28;20912;-72
2023/12/11 12:15:09;;;;;;;1.07;0.50;;;12.20;99.90;;;;;;5065753;28;20433;-75
2023/12/11 12:17:35;;;;;;;1.50;0.50;;;12.10;99.90;;;;;;5066147;28;20294;-73
2023/12/11 12:20:20;;;;;;;4.03;0.80;;;12.00;99.90;;;;;;5067116;28;20421;-73
2023/12/11 12:22:58;;;;;;;2.23;1.10;;;12.00;99.90;;;;;;5065965;28;20465;-73
2023/12/11 12:25:25;;;;;;;6.03;1.10;;;11.90;99.90;;;;;;5067018;28;20416;-73
2023/12/11 12:27:52;;;;;;;2.00;0.60;;;11.90;99.90;;;;;;5066844;28;20812;-75
2023/12/11 12:30:19;;;;;;;1.77;0.60;;;11.90;99.90;;;;;;5067077;28;20435;-74
2023/12/11 12:32:48;;;;;;;1.20;0.60;;;11.80;99.90;;;;;;5067033;28;21073;-74
2023/12/11 12:35:15;;;;;;;1.90;0.70;;;11.80;99.90;;;;;;5066844;28;20420;-74
2023/12/11 12:37:41;;;;;;;0.80;0.60;;;11.80;99.90;;;;;;5068659;28;20439;-74
2023/12/11 12:40:08;;;;;;;1.00;0.70;;;11.80;99.90;;;;;;5069598;28;20779;-74
2023/12/11 12:42:34;;;;;;;0.87;0.60;;;11.80;99.90;;;;;;5070979;28;20500;-74
2023/12/11 12:45:00;;;;;;;4.80;0.80;;;11.80;99.90;;;;;;5071123;28;20415;-73
2023/12/11 12:47:25;;;;;;;1.50;0.70;;;11.80;99.90;;;;;;5070891;28;20198;-75